createdAt,value
2019-04-09T00:00:22.025Z,955.98
2019-04-09T00:01:21.963Z,955.97
2019-04-09T00:02:21.898Z,955.99
2019-04-09T00:03:21.834Z,955.99
2019-04-09T00:04:21.776Z,955.96
2019-04-09T00:05:21.705Z,956.00
2019-04-09T00:06:21.644Z,955.97
2019-04-09T00:07:21.582Z,955.98
2019-04-09T00:08:21.519Z,955.99
2019-04-09T00:09:21.457Z,955.97
2019-04-09T00:10:22.080Z,955.97
2019-04-09T00:11:22.110Z,956.01
2019-04-09T00:12:21.777Z,955.99
2019-04-09T00:13:21.299Z,955.97
2019-04-09T00:14:21.995Z,955.95
2019-04-09T00:15:21.218Z,956.00
2019-04-09T00:16:21.010Z,955.98
2019-04-09T00:17:21.870Z,955.97
2019-04-09T00:18:21.126Z,955.92
2019-04-09T00:19:21.059Z,955.93
2019-04-09T00:20:20.759Z,955.90
2019-04-09T00:21:21.079Z,955.92
2019-04-09T00:22:20.833Z,955.89
2019-04-09T00:23:20.568Z,955.89
2019-04-09T00:24:20.862Z,955.89
2019-04-09T00:25:20.441Z,955.85
2019-04-09T00:26:20.376Z,955.83
2019-04-09T00:27:20.596Z,955.84
2019-04-09T00:28:20.252Z,955.80
2019-04-09T00:29:20.603Z,955.78
2019-04-09T00:30:20.711Z,955.82
2019-04-09T00:31:20.643Z,955.81
2019-04-09T00:32:20.639Z,955.79
2019-04-09T00:33:19.955Z,955.78
2019-04-09T00:34:19.880Z,955.80
2019-04-09T00:35:19.808Z,955.75
2019-04-09T00:36:19.751Z,955.78
2019-04-09T00:37:19.917Z,955.74
2019-04-09T00:38:19.617Z,955.75
2019-04-09T00:39:20.611Z,955.75
2019-04-09T00:40:19.491Z,955.76
2019-04-09T00:41:21.715Z,955.77
2019-04-09T00:42:19.362Z,955.68
2019-04-09T00:43:19.302Z,955.73
2019-04-09T00:44:20.134Z,955.74
2019-04-09T00:45:19.961Z,955.75
2019-04-09T00:46:19.919Z,955.78
2019-04-09T00:47:19.049Z,955.79
2019-04-09T00:48:19.879Z,955.81
2019-04-09T00:49:19.104Z,955.83
2019-04-09T00:50:19.054Z,955.85
2019-04-09T00:51:18.794Z,955.85
2019-04-09T00:52:18.729Z,955.85
2019-04-09T00:53:18.668Z,955.85
2019-04-09T00:54:18.601Z,955.85
2019-04-09T00:55:19.014Z,955.85
2019-04-09T00:56:18.483Z,955.86
2019-04-09T00:57:18.598Z,955.87
2019-04-09T00:58:18.434Z,955.86
2019-04-09T00:59:18.286Z,955.87
2019-04-09T01:00:18.531Z,955.86
2019-04-09T01:01:18.161Z,955.84
2019-04-09T01:02:18.374Z,955.85
2019-04-09T01:03:18.386Z,955.81
2019-04-09T01:04:17.972Z,955.82
2019-04-09T01:05:17.902Z,955.77
2019-04-09T01:06:18.843Z,955.78
2019-04-09T01:07:18.700Z,955.71
2019-04-09T01:08:18.865Z,955.75
2019-04-09T01:09:18.757Z,955.75
2019-04-09T01:10:18.493Z,955.74
2019-04-09T01:11:17.527Z,955.75
2019-04-09T01:12:18.317Z,955.73
2019-04-09T01:13:18.157Z,955.71
2019-04-09T01:14:17.687Z,955.72
2019-04-09T01:15:18.292Z,955.70
2019-04-09T01:16:17.896Z,955.73
2019-04-09T01:17:17.140Z,955.73
2019-04-09T01:18:17.072Z,955.75
2019-04-09T01:19:19.757Z,955.75
2019-04-09T01:20:17.680Z,955.74
2019-04-09T01:21:16.881Z,955.75
2019-04-09T01:22:17.838Z,955.74
2019-04-09T01:23:17.845Z,955.76
2019-04-09T01:24:27.792Z,955.76
2019-04-09T01:25:16.812Z,955.78
2019-04-09T01:26:16.582Z,955.74
2019-04-09T01:27:20.590Z,955.75
2019-04-09T01:28:16.446Z,955.77
2019-04-09T01:29:16.370Z,955.77
2019-04-09T01:30:16.300Z,955.75
2019-04-09T01:31:17.140Z,955.72
2019-04-09T01:32:17.154Z,955.77
2019-04-09T01:33:16.337Z,955.78
2019-04-09T01:34:16.107Z,955.81
2019-04-09T01:35:16.265Z,955.75
2019-04-09T01:36:15.920Z,955.81
2019-04-09T01:37:16.867Z,955.78
2019-04-09T01:38:15.792Z,955.75
2019-04-09T01:39:15.960Z,955.77
2019-04-09T01:40:15.664Z,955.77
2019-04-09T01:41:15.609Z,955.78
2019-04-09T01:42:16.398Z,955.74
2019-04-09T01:43:16.179Z,955.78
2019-04-09T01:44:15.768Z,955.74
2019-04-09T01:45:15.343Z,955.72
2019-04-09T01:46:15.278Z,955.74
2019-04-09T01:47:15.981Z,955.73
2019-04-09T01:48:15.883Z,955.72
2019-04-09T01:49:15.264Z,955.72
2019-04-09T01:50:15.058Z,955.70
2019-04-09T01:51:14.962Z,955.71
2019-04-09T01:52:15.995Z,955.70
2019-04-09T01:53:15.912Z,955.68
2019-04-09T01:54:15.093Z,955.69
2019-04-09T01:55:15.313Z,955.67
2019-04-09T01:56:14.642Z,955.64
2019-04-09T01:57:22.064Z,955.65
2019-04-09T01:58:14.779Z,955.66
2019-04-09T01:59:14.450Z,955.66
2019-04-09T02:00:14.383Z,955.64
2019-04-09T02:01:15.188Z,955.65
2019-04-09T02:02:15.250Z,955.64
2019-04-09T02:03:14.190Z,955.65
2019-04-09T02:04:14.361Z,955.60
2019-04-09T02:05:14.062Z,955.61
2019-04-09T02:06:13.997Z,955.64
2019-04-09T02:07:14.378Z,955.67
2019-04-09T02:08:13.873Z,955.62
2019-04-09T02:09:13.805Z,955.63
2019-04-09T02:10:14.325Z,955.58
2019-04-09T02:11:13.678Z,955.59
2019-04-09T02:12:14.478Z,955.54
2019-04-09T02:13:13.550Z,955.57
2019-04-09T02:14:13.616Z,955.59
2019-04-09T02:15:13.422Z,955.58
2019-04-09T02:16:13.363Z,955.56
2019-04-09T02:17:13.607Z,955.55
2019-04-09T02:18:13.604Z,955.52
2019-04-09T02:19:13.451Z,955.53
2019-04-09T02:20:13.109Z,955.54
2019-04-09T02:21:13.543Z,955.50
2019-04-09T02:22:13.787Z,955.51
2019-04-09T02:23:13.640Z,955.50
2019-04-09T02:24:13.761Z,955.50
2019-04-09T02:25:12.782Z,955.48
2019-04-09T02:26:12.824Z,955.50
2019-04-09T02:27:12.652Z,955.51
2019-04-09T02:28:13.154Z,955.49
2019-04-09T02:29:12.524Z,955.49
2019-04-09T02:30:12.751Z,955.52
2019-04-09T02:31:12.613Z,955.52
2019-04-09T02:32:12.365Z,955.53
2019-04-09T02:33:13.263Z,955.49
2019-04-09T02:34:12.865Z,955.51
2019-04-09T02:35:12.914Z,955.54
2019-04-09T02:36:13.734Z,955.54
2019-04-09T02:37:13.363Z,955.52
2019-04-09T02:38:12.455Z,955.53
2019-04-09T02:39:12.749Z,955.51
2019-04-09T02:40:11.817Z,955.51
2019-04-09T02:41:12.617Z,955.51
2019-04-09T02:42:12.531Z,955.49
2019-04-09T02:43:12.424Z,955.49
2019-04-09T02:44:11.590Z,955.47
2019-04-09T02:45:11.496Z,955.47
2019-04-09T02:46:11.771Z,955.47
2019-04-09T02:47:11.570Z,955.48
2019-04-09T02:48:11.305Z,955.46
2019-04-09T02:49:11.241Z,955.46
2019-04-09T02:50:11.176Z,955.43
2019-04-09T02:51:11.112Z,955.43
2019-04-09T02:52:11.354Z,955.40
2019-04-09T02:53:11.001Z,955.43
2019-04-09T02:54:10.918Z,955.44
2019-04-09T02:55:10.967Z,955.47
2019-04-09T02:56:10.790Z,955.48
2019-04-09T02:57:10.726Z,955.44
2019-04-09T02:58:10.662Z,955.41
2019-04-09T02:59:10.597Z,955.43
2019-04-09T03:00:10.533Z,955.45
2019-04-09T03:01:10.981Z,955.48
2019-04-09T03:02:10.406Z,955.42
2019-04-09T03:03:10.724Z,955.47
2019-04-09T03:04:10.794Z,955.43
2019-04-09T03:05:10.213Z,955.47
2019-04-09T03:06:10.147Z,955.42
2019-04-09T03:07:10.086Z,955.39
2019-04-09T03:08:10.642Z,955.47
2019-04-09T03:09:10.402Z,955.43
2019-04-09T03:10:09.892Z,955.43
2019-04-09T03:11:10.290Z,955.46
2019-04-09T03:12:10.326Z,955.44
2019-04-09T03:13:10.136Z,955.44
2019-04-09T03:14:10.058Z,955.46
2019-04-09T03:15:09.573Z,955.46
2019-04-09T03:16:09.776Z,955.46
2019-04-09T03:17:09.444Z,955.46
2019-04-09T03:18:09.378Z,955.46
2019-04-09T03:19:10.112Z,955.45
2019-04-09T03:20:09.948Z,955.46
2019-04-09T03:21:09.763Z,955.45
2019-04-09T03:22:09.122Z,955.43
2019-04-09T03:23:09.057Z,955.40
2019-04-09T03:24:09.849Z,955.46
2019-04-09T03:25:09.936Z,955.45
2019-04-09T03:26:09.173Z,955.46
2019-04-09T03:27:09.764Z,955.48
2019-04-09T03:28:12.902Z,955.45
2019-04-09T03:29:09.591Z,955.47
2019-04-09T03:30:10.178Z,955.46
2019-04-09T03:31:09.422Z,955.43
2019-04-09T03:32:10.074Z,955.44
2019-04-09T03:33:09.802Z,955.44
2019-04-09T03:34:09.582Z,955.39
2019-04-09T03:35:09.270Z,955.42
2019-04-09T03:36:08.230Z,955.42
2019-04-09T03:37:08.381Z,955.41
2019-04-09T03:38:08.150Z,955.41
2019-04-09T03:39:08.033Z,955.37
2019-04-09T03:40:09.065Z,955.42
2019-04-09T03:41:08.011Z,955.38
2019-04-09T03:42:08.081Z,955.37
2019-04-09T03:43:07.795Z,955.39
2019-04-09T03:44:08.558Z,955.36
2019-04-09T03:45:08.465Z,955.43
2019-04-09T03:46:07.584Z,955.40
2019-04-09T03:47:07.539Z,955.38
2019-04-09T03:48:07.457Z,955.43
2019-04-09T03:49:07.394Z,955.43
2019-04-09T03:50:07.349Z,955.45
2019-04-09T03:51:07.270Z,955.42
2019-04-09T03:52:07.336Z,955.41
2019-04-09T03:53:07.902Z,955.45
2019-04-09T03:54:07.076Z,955.48
2019-04-09T03:55:07.498Z,955.42
2019-04-09T03:56:07.567Z,955.42
2019-04-09T03:57:07.592Z,955.41
2019-04-09T03:58:16.394Z,955.42
2019-04-09T03:59:06.753Z,955.41
2019-04-09T04:00:06.691Z,955.38
2019-04-09T04:01:06.628Z,955.39
2019-04-09T04:02:06.564Z,955.36
2019-04-09T04:03:07.349Z,955.36
2019-04-09T04:04:07.326Z,955.35
2019-04-09T04:05:07.435Z,955.37
2019-04-09T04:06:06.307Z,955.33
2019-04-09T04:07:06.694Z,955.34
2019-04-09T04:08:06.880Z,955.33
2019-04-09T04:09:06.652Z,955.36
2019-04-09T04:10:07.355Z,955.38
2019-04-09T04:11:06.946Z,955.35
2019-04-09T04:12:06.232Z,955.34
2019-04-09T04:13:06.282Z,955.37
2019-04-09T04:14:05.793Z,955.37
2019-04-09T04:15:05.816Z,955.37
2019-04-09T04:16:06.064Z,955.36
2019-04-09T04:17:06.012Z,955.35
2019-04-09T04:18:05.539Z,955.33
2019-04-09T04:19:06.486Z,955.34
2019-04-09T04:20:05.408Z,955.34
2019-04-09T04:21:05.344Z,955.35
2019-04-09T04:22:05.287Z,955.34
2019-04-09T04:23:05.217Z,955.32
2019-04-09T04:24:05.817Z,955.28
2019-04-09T04:25:05.869Z,955.31
2019-04-09T04:26:05.025Z,955.29
2019-04-09T04:27:05.246Z,955.30
2019-04-09T04:28:05.080Z,955.29
2019-04-09T04:29:04.835Z,955.30
2019-04-09T04:30:04.769Z,955.30
2019-04-09T04:31:05.431Z,955.31
2019-04-09T04:32:04.641Z,955.26
2019-04-09T04:33:04.758Z,955.28
2019-04-09T04:34:04.515Z,955.29
2019-04-09T04:35:04.457Z,955.31
2019-04-09T04:36:05.273Z,955.29
2019-04-09T04:37:04.364Z,955.31
2019-04-09T04:38:04.456Z,955.29
2019-04-09T04:39:04.199Z,955.24
2019-04-09T04:40:04.138Z,955.31
2019-04-09T04:41:04.067Z,955.30
2019-04-09T04:42:04.009Z,955.27
2019-04-09T04:43:03.938Z,955.27
2019-04-09T04:44:04.044Z,955.27
2019-04-09T04:45:03.866Z,955.26
2019-04-09T04:46:03.745Z,955.26
2019-04-09T04:47:03.681Z,955.26
2019-04-09T04:48:04.691Z,955.30
2019-04-09T04:49:04.558Z,955.30
2019-04-09T04:50:03.491Z,955.33
2019-04-09T04:51:04.208Z,955.31
2019-04-09T04:52:03.628Z,955.33
2019-04-09T04:53:03.306Z,955.31
2019-04-09T04:54:03.579Z,955.36
2019-04-09T04:55:04.224Z,955.33
2019-04-09T04:56:03.631Z,955.35
2019-04-09T04:57:03.942Z,955.34
2019-04-09T04:58:02.977Z,955.33
2019-04-09T04:59:02.913Z,955.28
2019-04-09T05:00:02.854Z,955.31
2019-04-09T05:01:03.814Z,955.31
2019-04-09T05:02:02.720Z,955.31
2019-04-09T05:03:02.656Z,955.32
2019-04-09T05:04:02.851Z,955.33
2019-04-09T05:05:02.676Z,955.32
2019-04-09T05:06:03.138Z,955.33
2019-04-09T05:07:03.393Z,955.34
2019-04-09T05:08:02.336Z,955.35
2019-04-09T05:09:02.268Z,955.34
2019-04-09T05:10:02.212Z,955.37
2019-04-09T05:11:02.155Z,955.38
2019-04-09T05:12:02.081Z,955.36
2019-04-09T05:13:02.016Z,955.38
2019-04-09T05:14:01.954Z,955.38
2019-04-09T05:15:01.888Z,955.41
2019-04-09T05:16:01.963Z,955.40
2019-04-09T05:17:02.365Z,955.43
2019-04-09T05:18:02.792Z,955.46
2019-04-09T05:19:02.122Z,955.46
2019-04-09T05:20:02.724Z,955.47
2019-04-09T05:21:01.842Z,955.46
2019-04-09T05:22:02.296Z,955.51
2019-04-09T05:23:01.378Z,955.52
2019-04-09T05:24:02.397Z,955.52
2019-04-09T05:25:01.248Z,955.52
2019-04-09T05:26:01.931Z,955.53
2019-04-09T05:27:01.129Z,955.57
2019-04-09T05:28:01.056Z,955.57
2019-04-09T05:29:04.801Z,955.60
2019-04-09T05:30:00.933Z,955.61
2019-04-09T05:31:00.985Z,955.63
2019-04-09T05:32:00.798Z,955.64
2019-04-09T05:33:01.720Z,955.62
2019-04-09T05:34:00.894Z,955.64
2019-04-09T05:35:00.931Z,955.61
2019-04-09T05:36:01.298Z,955.59
2019-04-09T05:37:00.485Z,955.59
2019-04-09T05:38:00.959Z,955.62
2019-04-09T05:39:01.269Z,955.61
2019-04-09T05:40:01.028Z,955.57
2019-04-09T05:41:00.232Z,955.57
2019-04-09T05:42:00.472Z,955.58
2019-04-09T05:43:00.103Z,955.57
2019-04-09T05:44:00.732Z,955.58
2019-04-09T05:44:59.966Z,955.60
2019-04-09T05:45:59.908Z,955.59
2019-04-09T05:46:59.870Z,955.58
2019-04-09T05:47:59.776Z,955.59
2019-04-09T05:48:59.918Z,955.60
2019-04-09T05:50:00.430Z,955.61
2019-04-09T05:51:00.542Z,955.62
2019-04-09T05:51:59.776Z,955.62
2019-04-09T05:52:59.608Z,955.66
2019-04-09T05:53:59.394Z,955.65
2019-04-09T05:55:00.117Z,955.65
2019-04-09T05:55:59.266Z,955.68
2019-04-09T05:56:59.203Z,955.65
2019-04-09T05:57:59.199Z,955.66
2019-04-09T05:59:04.691Z,955.68
2019-04-09T05:59:59.719Z,955.66
2019-04-09T06:00:58.947Z,955.68
2019-04-09T06:01:58.907Z,955.64
2019-04-09T06:02:59.779Z,955.69
2019-04-09T06:03:59.036Z,955.71
2019-04-09T06:04:58.689Z,955.70
2019-04-09T06:05:58.628Z,955.68
2019-04-09T06:06:58.575Z,955.61
2019-04-09T06:07:59.704Z,955.64
2019-04-09T06:08:59.042Z,955.67
2019-04-09T06:09:58.370Z,955.61
2019-04-09T06:10:59.049Z,955.61
2019-04-09T06:11:58.427Z,955.59
2019-04-09T06:12:58.184Z,955.61
2019-04-09T06:13:58.115Z,955.61
2019-04-09T06:14:58.910Z,955.59
2019-04-09T06:15:57.992Z,955.56
2019-04-09T06:16:58.925Z,955.57
2019-04-09T06:17:57.857Z,955.56
2019-04-09T06:18:58.718Z,955.59
2019-04-09T06:19:57.729Z,955.56
2019-04-09T06:20:58.438Z,955.55
2019-04-09T06:21:57.623Z,955.58
2019-04-09T06:22:57.536Z,955.56
2019-04-09T06:23:58.464Z,955.60
2019-04-09T06:24:57.547Z,955.55
2019-04-09T06:25:57.954Z,955.56
2019-04-09T06:26:57.294Z,955.57
2019-04-09T06:27:57.440Z,955.56
2019-04-09T06:28:57.155Z,955.53
2019-04-09T06:29:57.089Z,955.54
2019-04-09T06:30:57.893Z,955.53
2019-04-09T06:31:57.190Z,955.55
2019-04-09T06:32:56.898Z,955.53
2019-04-09T06:33:57.276Z,955.50
2019-04-09T06:34:56.766Z,955.52
2019-04-09T06:35:57.530Z,955.55
2019-04-09T06:36:56.636Z,955.50
2019-04-09T06:37:57.421Z,955.51
2019-04-09T06:38:56.511Z,955.51
2019-04-09T06:39:56.881Z,955.49
2019-04-09T06:40:57.030Z,955.51
2019-04-09T06:41:56.320Z,955.54
2019-04-09T06:42:56.828Z,955.54
2019-04-09T06:43:56.688Z,955.54
2019-04-09T06:44:56.128Z,955.56
2019-04-09T06:45:56.061Z,955.56
2019-04-09T06:46:56.076Z,955.55
2019-04-09T06:47:55.934Z,955.57
2019-04-09T06:48:55.870Z,955.54
2019-04-09T06:49:56.869Z,955.55
2019-04-09T06:50:55.742Z,955.55
2019-04-09T06:51:55.799Z,955.57
2019-04-09T06:52:55.616Z,955.57
2019-04-09T06:53:55.550Z,955.56
2019-04-09T06:54:59.608Z,955.56
2019-04-09T06:55:55.514Z,955.59
2019-04-09T06:56:55.358Z,955.63
2019-04-09T06:57:56.098Z,955.61
2019-04-09T06:58:55.231Z,955.61
2019-04-09T06:59:55.166Z,955.60
2019-04-09T07:00:56.151Z,955.56
2019-04-09T07:01:55.332Z,955.59
2019-04-09T07:02:55.309Z,955.59
2019-04-09T07:03:54.910Z,955.56
2019-04-09T07:04:54.850Z,955.56
2019-04-09T07:05:56.825Z,955.55
2019-04-09T07:06:55.562Z,955.55
2019-04-09T07:07:54.650Z,955.54
2019-04-09T07:08:54.592Z,955.52
2019-04-09T07:09:54.527Z,955.50
2019-04-09T07:10:54.463Z,955.44
2019-04-09T07:11:55.138Z,955.47
2019-04-09T07:12:55.415Z,955.45
2019-04-09T07:13:54.274Z,955.44
2019-04-09T07:14:55.212Z,955.44
2019-04-09T07:15:54.911Z,955.46
2019-04-09T07:16:54.082Z,955.48
2019-04-09T07:17:54.405Z,955.46
2019-04-09T07:18:53.955Z,955.48
2019-04-09T07:19:53.889Z,955.49
2019-04-09T07:20:53.828Z,955.50
2019-04-09T07:21:54.892Z,955.49
2019-04-09T07:22:53.698Z,955.47
2019-04-09T07:23:54.322Z,955.49
2019-04-09T07:24:54.339Z,955.47
2019-04-09T07:25:54.315Z,955.49
2019-04-09T07:26:53.445Z,955.48
2019-04-09T07:27:54.869Z,955.46
2019-04-09T07:28:57.520Z,955.47
2019-04-09T07:30:00.384Z,955.50
2019-04-09T07:30:54.396Z,955.49
2019-04-09T07:31:53.216Z,955.45
2019-04-09T07:32:54.173Z,955.45
2019-04-09T07:33:53.062Z,955.46
2019-04-09T07:34:53.942Z,955.45
2019-04-09T07:35:52.874Z,955.45
2019-04-09T07:36:52.809Z,955.48
2019-04-09T07:37:52.741Z,955.47
2019-04-09T07:38:54.545Z,955.52
2019-04-09T07:39:53.483Z,955.48
2019-04-09T07:40:52.691Z,955.51
2019-04-09T07:41:52.486Z,955.50
2019-04-09T07:42:53.145Z,955.51
2019-04-09T07:43:54.542Z,955.48
2019-04-09T07:44:52.299Z,955.50
2019-04-09T07:45:52.239Z,955.48
2019-04-09T07:46:52.436Z,955.46
2019-04-09T07:47:55.450Z,955.51
2019-04-09T07:48:52.501Z,955.47
2019-04-09T07:49:51.984Z,955.49
2019-04-09T07:50:51.918Z,955.49
2019-04-09T07:51:53.407Z,955.44
2019-04-09T07:52:55.289Z,955.47
2019-04-09T07:53:51.767Z,955.41
2019-04-09T07:54:52.871Z,955.43
2019-04-09T07:55:54.362Z,955.45
2019-04-09T07:56:52.642Z,955.43
2019-04-09T07:57:52.553Z,955.42
2019-04-09T07:58:51.549Z,955.39
2019-04-09T08:00:01.984Z,955.40
2019-04-09T08:00:51.875Z,955.42
2019-04-09T08:01:51.700Z,955.42
2019-04-09T08:02:53.286Z,955.43
2019-04-09T08:03:51.340Z,955.40
2019-04-09T08:04:51.364Z,955.45
2019-04-09T08:05:51.788Z,955.41
2019-04-09T08:06:51.605Z,955.38
2019-04-09T08:07:52.284Z,955.41
2019-04-09T08:08:50.791Z,955.43
2019-04-09T08:09:51.311Z,955.40
2019-04-09T08:10:50.646Z,955.39
2019-04-09T08:11:50.583Z,955.44
2019-04-09T08:12:50.527Z,955.44
2019-04-09T08:13:53.705Z,955.46
2019-04-09T08:14:51.348Z,955.44
2019-04-09T08:15:50.343Z,955.44
2019-04-09T08:16:50.593Z,955.46
2019-04-09T08:17:51.662Z,955.46
2019-04-09T08:18:50.142Z,955.42
2019-04-09T08:19:50.098Z,955.39
2019-04-09T08:20:50.015Z,955.39
2019-04-09T08:21:50.763Z,955.40
2019-04-09T08:22:51.136Z,955.38
2019-04-09T08:23:51.727Z,955.39
2019-04-09T08:24:50.974Z,955.37
2019-04-09T08:25:50.497Z,955.36
2019-04-09T08:26:50.760Z,955.38
2019-04-09T08:27:49.569Z,955.39
2019-04-09T08:28:52.164Z,955.38
2019-04-09T08:29:49.581Z,955.38
2019-04-09T08:30:49.624Z,955.37
2019-04-09T08:32:04.009Z,955.38
2019-04-09T08:32:49.649Z,955.38
2019-04-09T08:33:51.155Z,955.41
2019-04-09T08:34:49.129Z,955.42
2019-04-09T08:35:50.078Z,955.39
2019-04-09T08:36:50.016Z,955.40
2019-04-09T08:37:53.024Z,955.42
2019-04-09T08:38:49.773Z,955.36
2019-04-09T08:39:48.933Z,955.37
2019-04-09T08:40:51.227Z,955.40
2019-04-09T08:41:48.729Z,955.40
2019-04-09T08:42:48.798Z,955.42
2019-04-09T08:43:48.558Z,955.39
2019-04-09T08:44:51.919Z,955.40
2019-04-09T08:45:51.809Z,955.43
2019-04-09T08:46:48.470Z,955.38
2019-04-09T08:47:49.385Z,955.39
2019-04-09T08:48:48.675Z,955.42
2019-04-09T08:49:51.915Z,955.43
2019-04-09T08:50:48.119Z,955.40
2019-04-09T08:51:48.052Z,955.44
2019-04-09T08:52:48.614Z,955.38
2019-04-09T08:53:48.751Z,955.41
2019-04-09T08:54:48.658Z,955.41
2019-04-09T08:55:47.803Z,955.39
2019-04-09T08:56:48.411Z,955.39
2019-04-09T08:57:49.330Z,955.36
2019-04-09T08:58:48.102Z,955.37
2019-04-09T08:59:47.549Z,955.35
2019-04-09T09:01:21.071Z,955.34
2019-04-09T09:02:02.472Z,955.36
2019-04-09T09:02:50.376Z,955.33
2019-04-09T09:03:54.765Z,955.36
2019-04-09T09:04:54.817Z,955.35
2019-04-09T09:05:54.240Z,955.34
2019-04-09T09:06:50.775Z,955.39
2019-04-09T09:07:47.062Z,955.38
2019-04-09T09:08:46.980Z,955.34
2019-04-09T09:09:49.238Z,955.34
2019-04-09T09:10:50.384Z,955.31
2019-04-09T09:11:47.610Z,955.35
2019-04-09T09:12:47.334Z,955.34
2019-04-09T09:13:47.648Z,955.30
2019-04-09T09:14:47.726Z,955.33
2019-04-09T09:15:47.044Z,955.33
2019-04-09T09:16:46.477Z,955.36
2019-04-09T09:17:50.192Z,955.33
2019-04-09T09:18:46.356Z,955.32
2019-04-09T09:19:46.859Z,955.31
2019-04-09T09:20:47.756Z,955.32
2019-04-09T09:21:46.169Z,955.31
2019-04-09T09:22:47.701Z,955.29
2019-04-09T09:23:47.515Z,955.29
2019-04-09T09:24:51.353Z,955.32
2019-04-09T09:25:45.914Z,955.30
2019-04-09T09:26:46.946Z,955.31
2019-04-09T09:27:46.216Z,955.33
2019-04-09T09:28:45.725Z,955.34
2019-04-09T09:29:45.662Z,955.33
2019-04-09T09:30:58.415Z,955.35
2019-04-09T09:31:45.538Z,955.32
2019-04-09T09:32:47.527Z,955.32
2019-04-09T09:33:49.357Z,955.33
2019-04-09T09:34:46.586Z,955.32
2019-04-09T09:35:45.289Z,955.35
2019-04-09T09:36:45.808Z,955.31
2019-04-09T09:37:47.819Z,955.38
2019-04-09T09:38:46.074Z,955.35
2019-04-09T09:39:45.136Z,955.31
2019-04-09T09:40:45.824Z,955.34
2019-04-09T09:41:44.914Z,955.35
2019-04-09T09:42:44.870Z,955.36
2019-04-09T09:43:47.883Z,955.33
2019-04-09T09:44:44.721Z,955.35
2019-04-09T09:45:44.659Z,955.37
2019-04-09T09:46:45.477Z,955.29
2019-04-09T09:47:47.598Z,955.33
2019-04-09T09:48:47.289Z,955.32
2019-04-09T09:49:44.410Z,955.29
2019-04-09T09:50:44.415Z,955.26
2019-04-09T09:51:46.916Z,955.28
2019-04-09T09:52:45.010Z,955.25
2019-04-09T09:53:44.240Z,955.28
2019-04-09T09:54:44.097Z,955.24
2019-04-09T09:55:46.829Z,955.21
2019-04-09T09:56:44.265Z,955.22
2019-04-09T09:57:45.956Z,955.18
2019-04-09T09:58:48.277Z,955.19
2019-04-09T09:59:43.804Z,955.18
2019-04-09T10:00:44.319Z,955.17
2019-04-09T10:01:44.000Z,955.17
2019-04-09T10:02:45.636Z,955.13
2019-04-09T10:03:47.504Z,955.15
2019-04-09T10:04:44.398Z,955.15
2019-04-09T10:05:43.404Z,955.14
2019-04-09T10:06:46.900Z,955.17
2019-04-09T10:07:51.556Z,955.17
2019-04-09T10:08:43.808Z,955.15
2019-04-09T10:09:44.511Z,955.16
2019-04-09T10:10:46.201Z,955.14
2019-04-09T10:11:43.034Z,955.15
2019-04-09T10:12:48.710Z,955.14
2019-04-09T10:13:42.910Z,955.11
2019-04-09T10:14:42.899Z,955.11
2019-04-09T10:15:44.084Z,955.13
2019-04-09T10:16:47.841Z,955.15
2019-04-09T10:17:44.824Z,955.15
2019-04-09T10:18:56.061Z,955.10
2019-04-09T10:19:42.533Z,955.13
2019-04-09T10:20:44.905Z,955.11
2019-04-09T10:21:45.709Z,955.11
2019-04-09T10:22:42.347Z,955.15
2019-04-09T10:23:42.285Z,955.09
2019-04-09T10:24:42.224Z,955.09
2019-04-09T10:25:42.161Z,955.05
2019-04-09T10:26:42.098Z,955.07
2019-04-09T10:27:47.478Z,955.05
2019-04-09T10:28:41.973Z,955.05
2019-04-09T10:29:41.911Z,955.04
2019-04-09T10:30:45.601Z,955.01
2019-04-09T10:31:47.272Z,955.05
2019-04-09T10:32:42.730Z,955.05
2019-04-09T10:33:46.260Z,955.03
2019-04-09T10:34:41.864Z,955.04
2019-04-09T10:35:42.481Z,955.05
2019-04-09T10:36:41.478Z,955.03
2019-04-09T10:37:41.413Z,955.05
2019-04-09T10:38:41.356Z,955.04
2019-04-09T10:39:41.291Z,955.02
2019-04-09T10:40:42.197Z,954.98
2019-04-09T10:41:46.375Z,954.99
2019-04-09T10:42:42.311Z,955.00
2019-04-09T10:43:43.832Z,954.96
2019-04-09T10:44:41.315Z,954.97
2019-04-09T10:45:41.792Z,954.95
2019-04-09T10:46:40.858Z,954.96
2019-04-09T10:47:43.251Z,954.91
2019-04-09T10:48:43.037Z,954.95
2019-04-09T10:49:41.654Z,954.96
2019-04-09T10:50:43.267Z,954.96
2019-04-09T10:51:41.811Z,954.96
2019-04-09T10:52:41.643Z,954.95
2019-04-09T10:53:40.428Z,954.96
2019-04-09T10:54:44.609Z,954.96
2019-04-09T10:55:40.300Z,954.99
2019-04-09T10:56:40.824Z,954.97
2019-04-09T10:57:41.610Z,954.95
2019-04-09T10:58:40.501Z,955.02
2019-04-09T10:59:40.052Z,954.98
2019-04-09T11:00:41.156Z,955.00
2019-04-09T11:01:42.889Z,954.93
2019-04-09T11:02:40.666Z,954.95
2019-04-09T11:03:40.895Z,954.92
2019-04-09T11:04:42.439Z,954.97
2019-04-09T11:05:39.674Z,954.98
2019-04-09T11:06:39.613Z,954.95
2019-04-09T11:07:40.434Z,954.91
2019-04-09T11:08:40.012Z,954.91
2019-04-09T11:09:39.428Z,954.89
2019-04-09T11:10:42.776Z,954.91
2019-04-09T11:11:39.368Z,954.92
2019-04-09T11:12:39.349Z,954.88
2019-04-09T11:13:39.177Z,954.87
2019-04-09T11:14:43.078Z,954.91
2019-04-09T11:15:39.062Z,954.88
2019-04-09T11:16:39.118Z,954.89
2019-04-09T11:17:40.983Z,954.93
2019-04-09T11:18:39.356Z,954.90
2019-04-09T11:19:39.300Z,954.88
2019-04-09T11:20:40.133Z,954.86
2019-04-09T11:21:40.161Z,954.90
2019-04-09T11:22:38.726Z,954.89
2019-04-09T11:23:39.441Z,954.87
2019-04-09T11:24:38.496Z,954.88
2019-04-09T11:25:40.043Z,954.90
2019-04-09T11:26:41.882Z,954.91
2019-04-09T11:27:39.627Z,954.89
2019-04-09T11:28:38.338Z,954.86
2019-04-09T11:29:38.228Z,954.91
2019-04-09T11:30:39.148Z,954.92
2019-04-09T11:31:47.175Z,954.89
2019-04-09T11:32:38.222Z,954.93
2019-04-09T11:33:40.666Z,954.91
2019-04-09T11:34:37.876Z,954.89
2019-04-09T11:35:38.680Z,954.93
2019-04-09T11:36:37.750Z,954.91
2019-04-09T11:37:37.688Z,954.88
2019-04-09T11:38:37.627Z,954.94
2019-04-09T11:39:38.487Z,954.93
2019-04-09T11:40:37.500Z,954.93
2019-04-09T11:41:37.442Z,954.91
2019-04-09T11:42:37.379Z,954.85
2019-04-09T11:43:38.409Z,954.89
2019-04-09T11:44:37.393Z,954.88
2019-04-09T11:45:37.749Z,954.88
2019-04-09T11:46:37.133Z,954.86
2019-04-09T11:47:37.201Z,954.88
2019-04-09T11:48:38.244Z,954.89
2019-04-09T11:49:36.948Z,954.90
2019-04-09T11:50:36.881Z,954.87
2019-04-09T11:51:37.488Z,954.88
2019-04-09T11:52:36.762Z,954.90
2019-04-09T11:53:36.705Z,954.88
2019-04-09T11:54:36.638Z,954.87
2019-04-09T11:55:37.578Z,954.92
2019-04-09T11:56:36.517Z,954.93
2019-04-09T11:57:37.818Z,954.93
2019-04-09T11:58:36.388Z,954.94
2019-04-09T11:59:37.259Z,954.92
2019-04-09T12:00:36.268Z,954.93
2019-04-09T12:01:36.626Z,954.93
2019-04-09T12:02:36.721Z,954.91
2019-04-09T12:03:36.086Z,954.89
2019-04-09T12:04:36.138Z,954.89
2019-04-09T12:05:36.461Z,954.87
2019-04-09T12:06:35.897Z,954.90
2019-04-09T12:07:35.936Z,954.90
2019-04-09T12:08:36.700Z,954.87
2019-04-09T12:09:35.715Z,954.88
2019-04-09T12:10:36.509Z,954.82
2019-04-09T12:11:36.722Z,954.82
2019-04-09T12:12:35.961Z,954.84
2019-04-09T12:13:35.469Z,954.83
2019-04-09T12:14:36.045Z,954.85
2019-04-09T12:15:35.491Z,954.81
2019-04-09T12:16:35.441Z,954.80
2019-04-09T12:17:35.227Z,954.78
2019-04-09T12:18:35.766Z,954.77
2019-04-09T12:19:35.100Z,954.75
2019-04-09T12:20:36.148Z,954.75
2019-04-09T12:21:35.363Z,954.75
2019-04-09T12:22:34.917Z,954.77
2019-04-09T12:23:34.855Z,954.72
2019-04-09T12:24:35.466Z,954.72
2019-04-09T12:25:35.709Z,954.75
2019-04-09T12:26:34.986Z,954.75
2019-04-09T12:27:34.612Z,954.76